Latest Weather Observations for Tunnack

IDT60801

Issued at 4:02 pm EDT Sunday 26 March 2017 (issued every 30 minutes, with the page automatically refreshed every 10 minutes)

About weather observations | Map of weather stations | Latest weather observations for TAS | Other Formats
Station Details ID: 094195 Name: TUNNACK FIRE STATION Lat: -42.45 Lon: 147.46 Height: 461.5 m
Data from the previous 72 hours. | See also: Recent months at Tunnack
Date/Time
EDT
Temp
°C
App
Temp
°C
Dew
Point
°C
Rel
Hum
%
Delta-T
°C
Wind Press
QNH
hPa
Press
MSL
hPa
Rain since
9am
mm
Dir  Spd
km/h
Gust
km/h
Spd
kts
Gust
kts
26/04:00pm 21.2 19.5 12.6 58 5.0 E 13 20 7 11 1014.3 1013.8 0.0
26/03:30pm 20.6 18.8 12.1 58 4.9 ESE 13 17 7 9 1014.4 1013.9 0.0
26/03:00pm 20.4 19.1 11.3 56 5.1 ENE 9 17 5 9 1014.7 1014.1 0.0
26/02:30pm 21.0 19.1 11.9 56 5.2 SE 13 20 7 11 1015.0 1014.4 0.0
26/02:00pm 20.5 18.7 12.0 58 4.8 ESE 13 19 7 10 1015.3 1014.8 0.0
26/01:30pm 20.3 19.9 13.0 63 4.2 NE 7 11 4 6 1015.7 1015.2 0.0
26/01:00pm 21.2 20.5 13.1 60 4.7 NE 9 13 5 7 1015.9 1015.4 0.0
26/12:30pm 19.6 18.2 12.1 62 4.3 E 11 15 6 8 1016.3 1015.8 0.0
26/12:00pm 18.8 17.4 12.3 66 3.7 SE 11 15 6 8 1016.6 1016.1 0.0
26/11:30am 18.5 17.5 12.3 67 3.5 S 9 17 5 9 1016.6 1016.1 0.0
26/11:00am 17.3 15.5 12.0 71 3.0 SSW 13 19 7 10 1016.6 1016.1 0.0
26/10:30am 17.1 16.3 13.0 77 2.3 S 9 15 5 8 1016.6 1016.1 0.0
26/10:00am 15.9 16.7 13.6 86 1.3 NE 2 7 1 4 1016.6 1016.1 0.0
26/09:30am 14.0 15.1 13.4 96 0.3 CALM 0 6 0 3 1016.4 1015.9 0.0
26/09:00am 12.7 13.5 12.4 98 0.2 CALM 0 0 0 0 1016.1 1015.6 0.4
26/08:30am 9.4 8.1 9.1 98 0.2 ESE 6 6 3 3 1015.9 1015.4 0.4
26/08:00am 7.3 5.3 7.0 98 0.1 ESE 7 9 4 5 1015.6 1015.1 0.4
26/07:30am 6.5 5.6 6.2 98 0.1 CALM 0 0 0 0 1015.3 1014.8 0.4
26/07:00am 7.0 6.2 6.7 98 0.1 CALM 0 0 0 0 1014.9 1014.3 0.4
26/06:30am 7.1 6.4 6.8 98 0.1 CALM 0 0 0 0 1014.7 1014.1 0.4
26/06:00am 6.9 6.1 6.6 98 0.1 CALM 0 0 0 0 1014.4 1013.9 0.4
26/05:30am 7.4 6.7 7.1 98 0.1 CALM 0 0 0 0 1014.4 1013.9 0.4
26/05:00am 7.1 6.4 6.8 98 0.1 CALM 0 0 0 0 1014.4 1013.9 0.4
26/04:30am 7.7 7.1 7.4 98 0.1 CALM 0 0 0 0 1014.4 1013.9 0.4
26/04:00am 7.4 6.7 7.1 98 0.1 CALM 0 0 0 0 1014.7 1014.1 0.4
26/03:30am 8.3 7.8 8.0 98 0.1 CALM 0 0 0 0 1014.7 1014.1 0.4
26/03:00am 7.9 7.3 7.6 98 0.1 CALM 0 0 0 0 1014.5 1014.0 0.4
26/02:30am 7.8 7.2 7.5 98 0.1 CALM 0 0 0 0 1014.8 1014.2 0.4
26/02:00am 8.8 8.1 8.5 98 0.1 ESE 2 6 1 3 1014.8 1014.2 0.4
26/01:30am 8.7 7.2 8.4 98 0.1 ESE 6 7 3 4 1014.7 1014.1 0.4
26/01:00am 8.6 8.2 8.3 98 0.1 CALM 0 0 0 0 1014.8 1014.2 0.4
26/12:30am 9.3 9.0 8.8 97 0.3 CALM 0 0 0 0 1014.8 1014.2 0.4
26/12:00am 9.7 9.5 9.2 97 0.3 CALM 0 0 0 0 1014.9 1014.3 0.4
 
Date/Time
EDT
Temp
°C
App
Temp
°C
Dew
Point
°C
Rel
Hum
%
Delta-T
°C
Wind Press
QNH
hPa
Press
MSL
hPa
Rain since
9am
mm
Dir  Spd
km/h
Gust
km/h
Spd
kts
Gust
kts
25/11:30pm 9.2 8.9 8.7 97 0.3 CALM 0 0 0 0 1014.9 1014.3 0.4
25/11:00pm 10.7 10.8 10.2 97 0.3 CALM 0 0 0 0 1014.8 1014.2 0.4
25/10:30pm 10.7 10.8 10.1 96 0.3 CALM 0 0 0 0 1014.7 1014.1 0.4
25/10:00pm 10.8 10.9 10.0 95 0.4 CALM 0 0 0 0 1014.5 1014.0 0.4
25/09:30pm 11.8 11.0 10.9 94 0.5 NNW 6 9 3 5 1014.3 1013.8 0.4
25/09:00pm 12.7 12.1 11.8 94 0.5 NE 6 7 3 4 1014.0 1013.5 0.4
25/08:30pm 13.3 12.7 12.4 94 0.5 NNE 7 9 4 5 1013.9 1013.4 0.4
25/08:00pm 13.4 13.0 12.5 94 0.5 ENE 6 7 3 4 1013.8 1013.3 0.4
25/07:30pm 13.4 13.4 12.3 93 0.6 ENE 4 9 2 5 1013.6 1013.1 0.4
25/07:00pm 13.6 13.0 12.3 92 0.7 N 7 11 4 6 1013.6 1013.1 0.4
25/06:30pm 13.8 12.9 12.7 93 0.6 N 9 11 5 6 1013.4 1012.9 0.4
25/06:00pm 14.0 13.7 12.7 92 0.7 N 6 7 3 4 1013.2 1012.6 0.4
25/05:30pm 13.9 13.6 12.8 93 0.6 ENE 6 7 3 4 1013.1 1012.5 0.4
25/05:00pm 14.1 13.3 13.0 93 0.6 NNE 9 11 5 6 1013.1 1012.5 0.2
25/04:30pm 13.9 12.6 12.5 91 0.8 NNE 11 15 6 8 1013.3 1012.8 0.0
25/04:00pm 13.9 11.9 11.6 86 1.3 N 13 17 7 9 1013.5 1013.0 0.0
25/03:30pm 14.1 12.1 11.6 85 1.4 N 13 17 7 9 1013.5 1013.0 0.0
25/03:00pm 15.1 11.5 10.5 74 2.5 N 20 28 11 15 1013.5 1013.0 0.0
25/02:30pm 15.8 12.4 10.6 71 2.8 N 19 28 10 15 1013.6 1013.1 0.0
25/02:00pm 16.6 14.3 10.5 67 3.3 N 13 20 7 11 1013.6 1013.1 0.0
25/01:30pm 16.0 12.4 10.7 71 2.9 N 20 28 11 15 1014.2 1013.7 0.0
25/01:00pm 14.6 11.2 10.4 76 2.3 N 19 24 10 13 1014.5 1014.0 0.0
25/12:30pm 14.8 10.9 9.4 70 2.8 N 20 28 11 15 1015.0 1014.4 0.0
25/12:00pm 14.7 10.8 9.5 71 2.7 N 20 26 11 14 1015.2 1014.7 0.0
25/11:30am 13.8 10.8 9.3 74 2.4 N 15 20 8 11 1015.6 1015.1 0.0
25/11:00am 12.8 9.2 8.5 75 2.2 NNE 17 22 9 12 1015.8 1015.3 0.0
25/10:30am 12.5 9.3 8.4 76 2.1 N 15 20 8 11 1015.8 1015.3 0.0
25/10:00am 12.4 9.6 8.5 77 2.0 N 13 19 7 10 1015.9 1015.4 0.0
25/09:30am 11.4 9.6 7.9 79 1.7 NE 7 11 4 6 1015.9 1015.4 0.0
25/09:00am 10.8 8.6 7.9 82 1.4 NE 9 15 5 8 1015.8 1015.3 0.0
25/08:30am 10.4 7.7 7.3 81 1.5 NNE 11 15 6 8 1015.7 1015.2 0.0
25/08:00am 10.3 7.6 7.4 82 1.4 NNE 11 15 6 8 1015.9 1015.4 0.0
25/07:30am 10.1 7.4 7.2 82 1.4 N 11 15 6 8 1016.0 1015.5 0.0
25/07:00am 10.2 7.1 7.3 82 1.4 NNE 13 15 7 8 1016.1 1015.6 0.0
25/06:30am 9.6 6.4 7.0 84 1.3 NNE 13 15 7 8 1016.2 1015.7 0.0
25/06:00am 9.7 7.7 7.0 83 1.3 ENE 7 13 4 7 1015.9 1015.4 0.0
25/05:30am 9.3 6.9 7.1 86 1.1 NE 9 11 5 6 1016.3 1015.8 0.0
25/05:00am 9.5 7.5 6.9 84 1.3 NNE 7 9 4 5 1016.6 1016.1 0.0
25/04:30am 9.5 6.7 6.8 83 1.3 NNE 11 11 6 6 1017.0 1016.5 0.0
25/04:00am 9.5 6.6 6.6 82 1.4 NNE 11 15 6 8 1017.1 1016.6 0.0
25/03:30am 10.1 6.5 6.6 79 1.7 NNE 15 20 8 11 1017.4 1016.9 0.0
25/03:00am 10.2 7.3 6.7 79 1.7 NNE 11 13 6 7 1018.1 1017.6 0.0
25/02:30am 9.5 6.9 6.2 80 1.6 N 9 11 5 6 1018.4 1017.9 0.0
25/02:00am 9.8 7.6 6.2 78 1.7 NE 7 11 4 6 1018.5 1018.0 0.0
25/01:30am 9.9 6.9 6.1 77 1.8 NE 11 17 6 9 1018.8 1018.4 0.0
25/01:00am 9.7 7.5 6.1 78 1.7 ENE 7 13 4 7 1018.9 1018.5 0.0
25/12:30am 9.7 7.2 6.4 80 1.6 NNE 9 13 5 7 1019.3 1018.8 0.0
25/12:00am 9.8 7.3 6.7 81 1.5 ENE 9 17 5 9 1019.7 1019.2 0.0
 
Date/Time
EDT
Temp
°C
App
Temp
°C
Dew
Point
°C
Rel
Hum
%
Delta-T
°C
Wind Press
QNH
hPa
Press
MSL
hPa
Rain since
9am
mm
Dir  Spd
km/h
Gust
km/h
Spd
kts
Gust
kts
24/11:30pm 9.6 6.9 7.2 85 1.2 NE 11 17 6 9 1020.2 1019.7 0.0
24/11:00pm 9.6 6.9 7.2 85 1.2 NE 11 17 6 9 1020.3 1019.8 0.0
24/10:30pm 9.6 6.5 7.2 85 1.2 ENE 13 20 7 11 1020.2 1019.7 0.0
24/10:00pm 9.7 6.7 7.5 86 1.1 ENE 13 20 7 11 1020.6 1020.1 0.0
24/09:30pm 9.8 6.8 7.6 86 1.1 ENE 13 22 7 12 1020.3 1019.8 0.0
24/09:00pm 10.1 7.1 7.7 85 1.2 ENE 13 24 7 13 1020.7 1020.3 0.0
24/08:30pm 10.3 7.4 8.1 86 1.1 ENE 13 24 7 13 1020.8 1020.4 0.0
24/08:00pm 10.6 8.1 8.2 85 1.2 ENE 11 19 6 10 1020.9 1020.5 0.0
24/07:30pm 10.9 8.4 8.3 84 1.3 ENE 11 17 6 9 1021.1 1020.7 0.0
24/07:00pm 11.3 8.5 8.5 83 1.4 ENE 13 20 7 11 1021.2 1020.8 0.0
24/06:30pm 11.9 9.5 8.7 81 1.6 ENE 11 20 6 11 1021.2 1020.8 0.0
24/06:00pm 12.5 9.8 9.0 79 1.8 ENE 13 20 7 11 1020.7 1020.3 0.0
24/05:30pm 13.3 10.3 9.2 76 2.1 ENE 15 20 8 11 1021.0 1020.6 0.0
24/05:00pm 14.3 11.6 9.1 71 2.7 ENE 13 20 7 11 1020.9 1020.5 0.0
24/04:30pm 15.4 12.1 6.4 55 4.5 ENE 13 17 7 9 1021.1 1020.7 0.0
24/04:00pm 15.8 12.8 6.0 52 4.8 ENE 11 15 6 8 1021.3 1020.9 0.0
24/03:30pm 16.0 12.8 5.3 49 5.2 ENE 11 17 6 9 1022.1 1021.6 0.0
24/03:00pm 16.4 13.3 5.7 49 5.3 NE 11 17 6 9 1022.7 1022.3 0.0
24/02:30pm 16.6 13.4 5.3 47 5.5 NNE 11 15 6 8 1023.1 1022.7 0.0
24/02:00pm 16.5 13.1 4.2 44 5.9 NNE 11 19 6 10 1023.2 1022.8 0.0
24/01:30pm 16.1 12.9 5.1 48 5.4 NNE 11 20 6 11 1023.5 1023.1 0.0
24/01:00pm 15.4 12.3 5.6 52 4.8 E 11 17 6 9 1023.7 1023.3 0.0
24/12:30pm 15.4 12.8 6.2 54 4.6 ENE 9 17 5 9 1024.1 1023.6 0.0
24/12:00pm 15.4 12.7 7.2 58 4.1 NNE 11 17 6 9 1024.5 1024.1 0.0
24/11:30am 14.4 11.9 6.5 59 3.9 NNE 9 15 5 8 1025.0 1024.6 0.0
24/11:00am 13.7 12.0 7.5 66 3.1 N 6 17 3 9 1025.1 1024.7 0.0
24/10:30am 12.9 11.0 7.4 69 2.7 NE 7 11 4 6 1025.2 1024.8 0.0
24/10:00am 11.5 10.4 8.4 81 1.6 NNW 4 6 2 3 1025.3 1024.9 0.0
24/09:30am 9.6 9.3 8.5 93 0.5 CALM 0 0 0 0 1025.2 1024.8 0.0
24/09:00am 6.6 5.8 6.3 98 0.1 CALM 0 0 0 0 1025.1 1024.7 0.2
24/08:30am 4.1 2.4 3.8 98 0.1 SE 2 6 1 3 1025.0 1024.6 0.2
24/08:00am 3.1 1.5 2.7 97 0.2 CALM 0 0 0 0 1024.7 1024.3 0.2
24/07:30am 3.6 1.4 3.3 98 0.1 WNW 4 7 2 4 1024.6 1024.2 0.2
24/07:00am 3.3 1.8 2.9 97 0.2 CALM 0 0 0 0 1024.3 1023.8 0.2
24/06:30am 3.5 0.3 3.1 97 0.2 ESE 9 9 5 5 1024.2 1023.7 0.2
24/06:00am 5.3 4.2 4.9 97 0.2 CALM 0 0 0 0 1024.4 1023.9 0.2
24/05:30am 6.0 3.7 5.6 97 0.2 ESE 7 9 4 5 1024.4 1023.9 0.2
24/05:00am 7.3 6.6 6.9 97 0.2 CALM 0 0 0 0 1024.6 1024.2 0.2
24/04:30am 7.7 7.1 7.3 97 0.2 CALM 0 0 0 0 1024.5 1024.1 0.2
24/04:00am 7.9 7.3 7.5 97 0.2 CALM 0 7 0 4 1024.6 1024.2 0.2
24/03:30am 7.4 6.3 7.0 97 0.2 NE 2 7 1 4 1024.3 1023.8 0.2
24/03:00am 6.6 4.6 6.2 97 0.2 NNW 6 7 3 4 1024.6 1024.2 0.2
24/02:30am 8.4 6.8 8.0 97 0.2 WNW 6 9 3 5 1024.6 1024.2 0.2
24/02:00am 7.4 5.9 7.0 97 0.2 NNW 4 7 2 4 1024.4 1023.9 0.2
24/01:30am 6.6 5.7 6.0 96 0.3 CALM 0 6 0 3 1024.6 1024.2 0.2
24/01:00am 7.0 6.2 6.4 96 0.3 CALM 0 0 0 0 1025.1 1024.7 0.2
24/12:30am 7.0 6.2 6.3 95 0.3 CALM 0 4 0 2 1024.8 1024.4 0.2
24/12:00am 8.4 7.8 7.6 95 0.4 CALM 0 0 0 0 1025.6 1025.2 0.2
 
Date/Time
EDT
Temp
°C
App
Temp
°C
Dew
Point
°C
Rel
Hum
%
Delta-T
°C
Wind Press
QNH
hPa
Press
MSL
hPa
Rain since
9am
mm
Dir  Spd
km/h
Gust
km/h
Spd
kts
Gust
kts
23/11:30pm 8.9 7.4 8.3 96 0.3 WNW 6 9 3 5 1026.2 1025.7 0.2
23/11:00pm 8.5 8.0 7.7 95 0.4 CALM 0 0 0 0 1026.5 1026.1 0.2
23/10:30pm 8.6 6.7 7.7 94 0.4 E 7 7 4 4 1026.3 1025.8 0.2
23/10:00pm 8.9 8.1 8.0 94 0.4 SE 2 7 1 4 1026.6 1026.2 0.2
23/09:30pm 9.4 7.4 8.5 94 0.4 SE 9 11 5 6 1026.5 1026.1 0.2
23/09:00pm 9.4 7.8 8.2 92 0.6 ESE 6 7 3 4 1025.9 1025.5 0.2
23/08:30pm 9.6 7.8 8.0 90 0.8 ESE 7 9 4 5 1025.5 1025.1 0.2
23/08:00pm 10.1 7.9 7.9 86 1.1 E 9 11 5 6 1025.1 1024.7 0.2
23/07:30pm 11.5 9.0 8.4 81 1.6 E 11 15 6 8 1025.1 1024.7 0.2
23/07:00pm 12.6 10.6 8.5 76 2.1 ENE 9 15 5 8 1025.1 1024.7 0.2
23/06:30pm 12.7 10.2 8.4 75 2.2 ENE 11 15 6 8 1024.7 1024.3 0.2
23/06:00pm 13.6 11.2 8.7 72 2.5 E 11 15 6 8 1024.7 1024.3 0.2
23/05:30pm 14.0 12.5 8.4 69 2.9 ENE 6 11 3 6 1024.7 1024.3 0.2
23/05:00pm 14.0 11.5 8.0 67 3.0 NE 11 15 6 8 1024.6 1024.2 0.2
23/04:30pm 13.9 11.9 7.2 64 3.4 E 7 15 4 8 1024.7 1024.3 0.2

Other Formats:

Comma delimited format used in spreadsheet applications
http://www.bom.gov.au/fwo/IDT60801/IDT60801.94960.axf

JavaScript Object Notation format (JSON) in row-major order
http://www.bom.gov.au/fwo/IDT60801/IDT60801.94960.json